Time;durP1;ratioP1;P1;durP2;ratioP2;P2;SDS_P1;SDS_P2;PMS_P1;PMS_P2;Temp;Humidity;BMP_temperature;BMP_pressure;BME280_temperature;BME280_humidity;BME280_pressure;Samples;Min_cycle;Max_cycle;Signal;HPM_P1;HPM_P2
2022/10/04 00:00:40;;;;;;;5.78;4.43;;;8.00;99.90;;;;;;5032611;28;20080;-78
2022/10/04 00:03:16;;;;;;;6.85;4.68;;;8.10;99.90;;;;;;5030838;28;20087;-78
2022/10/04 00:05:43;;;;;;;7.03;4.63;;;8.20;99.90;;;;;;5036448;28;20068;-78
2022/10/04 00:08:34;;;;;;;5.97;4.28;;;8.30;99.90;;;;;;5036725;28;20022;-77
2022/10/04 00:11:05;;;;;;;4.77;3.87;;;8.40;99.90;;;;;;5028631;28;20091;-77
2022/10/04 00:13:31;;;;;;;3.88;3.47;;;8.50;99.90;;;;;;5035393;28;20029;-77
2022/10/04 00:15:57;;;;;;;6.50;4.13;;;8.50;99.90;;;;;;5034971;28;20029;-80
2022/10/04 00:18:31;;;;;;;4.72;4.13;;;8.60;99.90;;;;;;5039291;28;20064;-78
2022/10/04 00:20:59;;;;;;;5.57;4.03;;;8.60;99.90;;;;;;5037149;28;20156;-77
2022/10/04 00:23:40;;;;;;;4.03;3.42;;;8.70;99.90;;;;;;5043993;28;20037;-78
2022/10/04 00:26:32;;;;;;;4.70;3.40;;;8.70;99.90;;;;;;5052766;28;20029;-77
2022/10/04 00:28:57;;;;;;;5.18;3.42;;;8.80;99.90;;;;;;5021627;28;20022;-80
2022/10/04 00:31:27;;;;;;;6.30;3.95;;;8.80;99.90;;;;;;5033058;28;20029;-78
2022/10/04 00:33:54;;;;;;;6.30;3.50;;;8.80;99.90;;;;;;5023174;28;20020;-77
2022/10/04 00:36:23;;;;;;;4.32;3.65;;;8.80;99.90;;;;;;5030191;28;20033;-78
2022/10/04 00:39:05;;;;;;;5.70;3.33;;;8.80;99.90;;;;;;5034744;28;20032;-78
2022/10/04 00:41:46;;;;;;;4.40;4.00;;;8.80;99.90;;;;;;5034644;28;20075;-78
2022/10/04 00:44:20;;;;;;;4.63;4.00;;;8.80;99.90;;;;;;5035151;28;20048;-79
2022/10/04 00:46:48;;;;;;;7.15;4.10;;;8.70;99.90;;;;;;5035380;28;20057;-77
2022/10/04 00:49:17;;;;;;;6.80;4.57;;;8.60;99.90;;;;;;5038694;28;20120;-77
2022/10/04 00:51:44;;;;;;;5.63;4.00;;;8.50;99.90;;;;;;5035509;28;20025;-77
2022/10/04 00:54:10;;;;;;;5.50;4.10;;;8.50;99.90;;;;;;5034904;28;20034;-76
2022/10/04 00:56:44;;;;;;;5.85;4.03;;;8.40;99.90;;;;;;5034849;28;20036;-78
2022/10/04 00:59:39;;;;;;;8.60;5.00;;;8.30;99.90;;;;;;5035125;28;20037;-78
2022/10/04 01:02:57;;;;;;;8.35;4.72;;;8.20;99.90;;;;;;5034439;28;20116;-78
2022/10/04 01:05:29;;;;;;;5.57;4.40;;;8.10;99.90;;;;;;4975457;28;20034;-77
2022/10/04 01:08:05;;;;;;;7.28;4.70;;;8.00;99.90;;;;;;5031541;28;20116;-77
2022/10/04 01:10:38;;;;;;;7.72;4.32;;;7.90;99.90;;;;;;5034562;28;20030;-78
2022/10/04 01:13:18;;;;;;;6.53;4.43;;;7.90;99.90;;;;;;5035326;28;20077;-77
2022/10/04 01:16:10;;;;;;;6.93;4.20;;;7.90;99.90;;;;;;5035020;28;20026;-77
2022/10/04 01:18:37;;;;;;;7.38;4.97;;;7.90;99.90;;;;;;5015239;28;20033;-76
2022/10/04 01:21:27;;;;;;;4.40;3.80;;;7.80;99.90;;;;;;5015047;28;20033;-78
2022/10/04 01:24:16;;;;;;;7.60;4.93;;;7.70;99.90;;;;;;5013507;28;20081;-77
2022/10/04 01:26:43;;;;;;;4.75;3.88;;;7.70;99.90;;;;;;5017440;28;20034;-78
2022/10/04 01:29:14;;;;;;;7.93;4.25;;;7.70;99.90;;;;;;5037505;28;20052;-78
2022/10/04 01:31:43;;;;;;;6.80;4.55;;;7.70;99.90;;;;;;5034567;28;20059;-76
2022/10/04 01:34:13;;;;;;;4.88;3.83;;;7.60;99.90;;;;;;5036524;28;20057;-76
2022/10/04 01:36:39;;;;;;;5.85;3.70;;;7.60;99.90;;;;;;5034429;28;20030;-78
2022/10/04 01:39:06;;;;;;;4.15;3.28;;;7.60;99.90;;;;;;5014677;28;20026;-77
2022/10/04 01:41:57;;;;;;;5.82;3.83;;;7.60;99.90;;;;;;5014491;28;20091;-78
2022/10/04 01:44:50;;;;;;;6.65;4.00;;;7.60;99.90;;;;;;5013954;28;20506;-77
2022/10/04 01:47:30;;;;;;;5.95;3.88;;;7.60;99.90;;;;;;5016201;28;20053;-76
2022/10/04 01:49:58;;;;;;;5.55;3.90;;;7.60;99.90;;;;;;5036230;28;20540;-76
2022/10/04 01:53:00;;;;;;;7.00;3.85;;;7.50;99.90;;;;;;5034005;28;20109;-78
2022/10/04 01:55:32;;;;;;;6.80;3.63;;;7.50;99.90;;;;;;5034153;28;20037;-79
2022/10/04 01:58:08;;;;;;;6.07;3.97;;;7.40;99.90;;;;;;5036512;28;20085;-78
2022/10/04 02:00:42;;;;;;;5.32;3.97;;;7.40;99.90;;;;;;5034096;28;20021;-79
2022/10/04 02:03:25;;;;;;;4.03;3.33;;;7.40;99.90;;;;;;5035829;28;20022;-78
2022/10/04 02:05:58;;;;;;;4.80;3.33;;;7.40;99.90;;;;;;5037808;28;20231;-78
2022/10/04 02:08:29;;;;;;;5.70;3.72;;;7.30;99.90;;;;;;5036723;28;20017;-78
2022/10/04 02:10:56;;;;;;;7.57;4.32;;;7.30;99.90;;;;;;5035160;28;20025;-77
2022/10/04 02:13:28;;;;;;;5.63;3.78;;;7.30;99.90;;;;;;5035657;28;20033;-78
2022/10/04 02:15:54;;;;;;;5.28;3.85;;;7.20;99.90;;;;;;5034057;28;20025;-79
2022/10/04 02:18:22;;;;;;;5.47;3.80;;;7.20;99.90;;;;;;5031738;28;20099;-78
2022/10/04 02:20:50;;;;;;;6.18;3.60;;;7.20;99.90;;;;;;5033630;28;20026;-78
2022/10/04 02:23:18;;;;;;;4.28;3.03;;;7.20;99.90;;;;;;5032194;28;20032;-78
2022/10/04 02:25:45;;;;;;;5.47;3.95;;;7.20;99.90;;;;;;5032531;28;20041;-78
2022/10/04 02:28:12;;;;;;;5.50;4.20;;;7.20;99.90;;;;;;5033328;28;20096;-79
2022/10/04 02:32:56;;;;;;;5.85;3.90;;;7.20;99.90;;;;;;5035106;28;20103;-79
2022/10/04 02:33:37;;;;;;;7.25;3.95;;;7.10;99.90;;;;;;5032612;28;20026;-80
2022/10/04 02:36:04;;;;;;;4.10;3.55;;;7.10;99.90;;;;;;5073884;23;20070;-80
2022/10/04 02:38:35;;;;;;;6.55;3.83;;;7.10;99.90;;;;;;5044278;28;20074;-78
2022/10/04 02:41:03;;;;;;;5.55;3.38;;;7.10;99.90;;;;;;5026077;28;20057;-79
2022/10/04 02:43:53;;;;;;;5.95;3.05;;;7.00;99.90;;;;;;5026206;28;20014;-80
2022/10/04 02:46:41;;;;;;;5.78;3.53;;;7.10;99.90;;;;;;5028117;28;20049;-79
2022/10/04 02:49:30;;;;;;;5.20;3.53;;;7.10;99.90;;;;;;5027351;28;20034;-81
2022/10/04 02:52:31;;;;;;;10.60;3.97;;;7.10;99.90;;;;;;5024625;28;20022;-79
2022/10/04 02:55:18;;;;;;;4.63;3.40;;;7.00;99.90;;;;;;4983132;28;20027;-80
2022/10/04 02:57:44;;;;;;;4.80;3.35;;;7.00;99.90;;;;;;5039543;28;20030;-81
2022/10/04 03:00:20;;;;;;;7.60;3.92;;;6.90;99.90;;;;;;5029446;28;20078;-80
2022/10/04 03:03:10;;;;;;;6.60;3.50;;;6.90;99.90;;;;;;5023322;28;20030;-80
2022/10/04 03:05:37;;;;;;;3.20;2.90;;;6.90;99.90;;;;;;5024843;28;20029;-80
2022/10/04 03:08:06;;;;;;;7.50;3.10;;;6.90;99.90;;;;;;5024068;28;20026;-80
2022/10/04 03:10:34;;;;;;;4.90;3.20;;;6.90;99.90;;;;;;5025189;28;20033;-80
2022/10/04 03:13:00;;;;;;;5.45;2.85;;;6.80;99.90;;;;;;5041231;28;20371;-81
2022/10/04 03:15:26;;;;;;;3.80;3.03;;;6.80;99.90;;;;;;5030058;28;20045;-83
2022/10/04 03:17:52;;;;;;;4.60;2.70;;;6.80;99.90;;;;;;5036489;28;20018;-80
2022/10/04 03:20:20;;;;;;;4.60;3.15;;;6.80;99.90;;;;;;5051573;28;20093;-83
2022/10/04 03:22:49;;;;;;;4.15;3.15;;;6.80;99.90;;;;;;5036389;28;20034;-81
2022/10/04 03:25:20;;;;;;;5.43;3.20;;;6.80;99.90;;;;;;5035406;28;20094;-81
2022/10/04 03:27:46;;;;;;;3.83;2.88;;;6.80;99.90;;;;;;5036265;28;20048;-82
2022/10/04 03:30:19;;;;;;;4.47;3.45;;;6.80;99.90;;;;;;5036369;28;20048;-82
2022/10/04 03:32:46;;;;;;;4.30;2.83;;;6.80;99.90;;;;;;5028434;28;20065;-79
2022/10/04 03:35:19;;;;;;;3.58;2.95;;;6.80;99.90;;;;;;5029850;28;20060;-82
2022/10/04 03:37:45;;;;;;;4.03;2.92;;;6.80;99.90;;;;;;5035141;28;20021;-81
2022/10/04 03:40:13;;;;;;;3.40;3.10;;;6.80;99.90;;;;;;5033586;28;20084;-81
2022/10/04 03:42:39;;;;;;;5.07;3.05;;;6.80;99.90;;;;;;5027892;28;20115;-82
2022/10/04 03:45:15;;;;;;;3.75;2.65;;;6.80;99.90;;;;;;5015762;28;20030;-81
2022/10/04 03:47:47;;;;;;;4.28;2.80;;;6.80;99.90;;;;;;5032894;28;20034;-80
2022/10/04 03:50:23;;;;;;;4.93;3.05;;;6.70;99.90;;;;;;5016210;28;20053;-80
2022/10/04 03:52:57;;;;;;;3.40;2.90;;;6.70;99.90;;;;;;5013337;28;20117;-81
2022/10/04 03:55:30;;;;;;;3.75;2.83;;;6.70;99.90;;;;;;5011863;28;20022;-80
2022/10/04 03:57:58;;;;;;;4.60;3.03;;;6.60;99.90;;;;;;5007964;28;20022;-82
2022/10/04 04:00:23;;;;;;;5.72;3.30;;;6.60;99.90;;;;;;5008191;28;20042;-79
2022/10/04 04:02:57;;;;;;;5.18;2.85;;;6.60;99.90;;;;;;5018757;28;20026;-80
2022/10/04 04:05:31;;;;;;;4.43;3.30;;;6.60;99.90;;;;;;5028984;28;20362;-80
2022/10/04 04:08:25;;;;;;;3.20;2.75;;;6.60;99.90;;;;;;5027858;28;20017;-79
2022/10/04 04:10:54;;;;;;;3.90;3.10;;;6.60;99.90;;;;;;5027857;28;20425;-80
2022/10/04 04:13:42;;;;;;;3.35;2.70;;;6.60;99.90;;;;;;5028774;28;20022;-78
2022/10/04 04:16:10;;;;;;;6.70;3.30;;;6.60;99.90;;;;;;5028949;28;20041;-80
2022/10/04 04:18:39;;;;;;;3.83;3.00;;;6.50;99.90;;;;;;5025882;28;20094;-80
2022/10/04 04:21:06;;;;;;;3.47;2.97;;;6.50;99.90;;;;;;5025327;28;20037;-80
2022/10/04 04:23:49;;;;;;;4.32;3.20;;;6.50;99.90;;;;;;5025948;28;20033;-80
2022/10/04 04:26:36;;;;;;;3.97;2.60;;;6.50;99.90;;;;;;5025210;28;20588;-81
2022/10/04 04:29:21;;;;;;;4.05;2.50;;;6.50;99.90;;;;;;5025898;28;20117;-81
2022/10/04 04:32:10;;;;;;;2.83;2.55;;;6.50;99.90;;;;;;5026885;28;20029;-81
2022/10/04 04:34:48;;;;;;;2.97;2.70;;;6.50;99.90;;;;;;5018493;28;20038;-78
2022/10/04 04:37:14;;;;;;;3.03;2.40;;;6.50;99.90;;;;;;5018178;28;20088;-80
2022/10/04 04:39:40;;;;;;;3.85;2.33;;;6.50;99.90;;;;;;5019605;28;20021;-80
2022/10/04 04:42:32;;;;;;;4.40;2.60;;;6.40;99.90;;;;;;5021970;28;20030;-81
2022/10/04 04:45:21;;;;;;;2.88;2.10;;;6.40;99.90;;;;;;5038970;28;20036;-80
2022/10/04 04:47:49;;;;;;;2.80;2.53;;;6.40;99.90;;;;;;5024817;28;20079;-81
2022/10/04 04:50:19;;;;;;;4.25;2.63;;;6.40;99.90;;;;;;5028566;28;20049;-80
2022/10/04 04:53:03;;;;;;;2.60;2.40;;;6.40;99.90;;;;;;5033362;28;20133;-79
2022/10/04 04:55:37;;;;;;;3.72;2.55;;;6.40;99.90;;;;;;5033860;28;20033;-79
2022/10/04 04:58:05;;;;;;;4.78;2.85;;;6.40;99.90;;;;;;5050802;28;20252;-80
2022/10/04 05:00:37;;;;;;;4.50;3.40;;;6.40;99.90;;;;;;5030510;28;20032;-80
2022/10/04 05:03:07;;;;;;;3.63;2.83;;;6.40;99.90;;;;;;5029687;28;20343;-81
2022/10/04 05:05:34;;;;;;;5.78;4.38;;;6.50;99.90;;;;;;5036148;28;20026;-79
2022/10/04 05:08:22;;;;;;;5.25;3.78;;;6.40;99.90;;;;;;5034034;28;20037;-78
2022/10/04 05:10:56;;;;;;;5.35;4.03;;;6.40;99.90;;;;;;5034717;28;20046;-78
2022/10/04 05:13:39;;;;;;;4.13;3.60;;;6.50;99.90;;;;;;5030781;28;20026;-79
2022/10/04 05:16:26;;;;;;;4.55;3.80;;;6.50;99.90;;;;;;5020405;28;20157;-80
2022/10/04 05:18:59;;;;;;;4.93;3.78;;;6.50;99.90;;;;;;5019166;28;20026;-81
2022/10/04 05:21:27;;;;;;;5.13;3.65;;;6.50;99.90;;;;;;5039511;28;20149;-81
2022/10/04 05:23:56;;;;;;;6.22;3.50;;;6.50;99.90;;;;;;5024685;28;20022;-79
2022/10/04 05:26:31;;;;;;;6.00;3.28;;;6.60;99.90;;;;;;5024315;28;20394;-80
2022/10/04 05:29:07;;;;;;;6.43;3.20;;;6.60;99.90;;;;;;5027041;28;20026;-80
2022/10/04 05:31:57;;;;;;;5.30;2.92;;;6.70;99.90;;;;;;5028963;28;20383;-78
2022/10/04 05:34:24;;;;;;;4.78;3.20;;;6.70;99.90;;;;;;5032988;28;20022;-80
2022/10/04 05:37:15;;;;;;;5.20;3.40;;;6.80;99.90;;;;;;5035893;28;20025;-80
2022/10/04 05:40:03;;;;;;;6.50;3.55;;;6.80;99.90;;;;;;5029008;28;20086;-81
2022/10/04 05:42:38;;;;;;;5.40;3.72;;;6.90;99.90;;;;;;5025574;28;20037;-81
2022/10/04 05:45:16;;;;;;;5.35;4.07;;;7.00;99.90;;;;;;5027226;28;20076;-82
2022/10/04 05:47:42;;;;;;;3.33;3.00;;;7.10;99.90;;;;;;5026439;28;20018;-80
2022/10/04 05:50:39;;;;;;;4.10;3.25;;;7.20;99.90;;;;;;5041145;28;20022;-82
2022/10/04 05:53:13;;;;;;;4.03;3.33;;;7.40;99.90;;;;;;5026662;28;20049;-80
2022/10/04 05:56:10;;;;;;;4.82;3.33;;;7.50;99.90;;;;;;5027624;28;20022;-81
2022/10/04 05:58:54;;;;;;;5.18;3.00;;;7.60;99.90;;;;;;5028167;28;20043;-81
2022/10/04 06:01:53;;;;;;;4.38;3.00;;;7.70;99.90;;;;;;5028100;28;20030;-81
2022/10/04 06:04:19;;;;;;;8.45;3.50;;;7.90;99.90;;;;;;5033460;28;20022;-78
2022/10/04 06:07:17;;;;;;;5.97;3.15;;;8.00;99.90;;;;;;5036091;28;20045;-78
2022/10/04 06:10:03;;;;;;;4.47;3.28;;;8.20;99.90;;;;;;5018050;28;20048;-80
2022/10/04 06:12:45;;;;;;;5.97;2.75;;;8.40;99.90;;;;;;5027932;28;20041;-81
2022/10/04 06:15:38;;;;;;;3.05;2.55;;;8.60;99.90;;;;;;5039840;28;20026;-81
2022/10/04 06:18:28;;;;;;;3.63;2.67;;;8.80;99.90;;;;;;5026382;28;20037;-80
2022/10/04 06:21:10;;;;;;;3.17;2.80;;;9.00;99.90;;;;;;5024753;28;20032;-81
2022/10/04 06:23:49;;;;;;;4.07;3.00;;;9.20;99.90;;;;;;5028964;28;20056;-80
2022/10/04 06:26:23;;;;;;;4.63;2.72;;;9.20;99.90;;;;;;5037600;28;20044;-81
2022/10/04 06:28:55;;;;;;;4.80;2.75;;;9.20;99.90;;;;;;5027254;28;20437;-80
2022/10/04 06:31:43;;;;;;;3.20;2.65;;;9.20;99.90;;;;;;5042163;28;20029;-81
2022/10/04 06:34:43;;;;;;;8.35;4.00;;;9.20;99.90;;;;;;5042577;28;20065;-80
2022/10/04 06:37:30;;;;;;;5.63;3.20;;;9.10;99.90;;;;;;5027608;28;20022;-81
2022/10/04 06:40:25;;;;;;;6.70;3.45;;;9.10;99.90;;;;;;5022671;28;20116;-82
2022/10/04 06:43:12;;;;;;;4.13;3.30;;;9.00;99.90;;;;;;5018406;28;20140;-81
2022/10/04 06:45:53;;;;;;;4.88;2.97;;;9.10;99.90;;;;;;5017786;28;20030;-80
2022/10/04 06:48:43;;;;;;;3.83;2.65;;;9.20;99.90;;;;;;5018500;28;20081;-80
2022/10/04 06:51:41;;;;;;;4.68;2.88;;;9.20;99.90;;;;;;5015624;28;20333;-81
2022/10/04 06:54:12;;;;;;;2.40;2.20;;;9.30;99.90;;;;;;5007231;28;20034;-78
2022/10/04 06:57:33;;;;;;;2.73;2.47;;;9.40;99.90;;;;;;5021868;28;20029;-79
2022/10/04 07:00:28;;;;;;;3.22;2.28;;;9.50;99.90;;;;;;4975064;28;20129;-78
2022/10/04 07:03:19;;;;;;;3.10;2.42;;;9.80;99.90;;;;;;5035177;28;20018;-79
2022/10/04 07:05:47;;;;;;;4.15;2.47;;;10.00;99.90;;;;;;5023311;28;20022;-79
2022/10/04 07:08:32;;;;;;;3.15;2.50;;;10.30;99.90;;;;;;5022038;28;20030;-79
2022/10/04 07:11:22;;;;;;;3.33;2.40;;;10.50;99.90;;;;;;5021279;28;20022;-80
2022/10/04 07:14:46;;;;;;;3.45;2.53;;;10.80;99.90;;;;;;5022402;28;20018;-80
2022/10/04 07:17:26;;;;;;;2.75;2.17;;;11.00;99.90;;;;;;4991161;28;20037;-82
2022/10/04 07:19:54;;;;;;;3.28;2.80;;;11.20;99.90;;;;;;5012144;28;20053;-80
2022/10/04 07:22:37;;;;;;;3.25;2.83;;;11.20;99.90;;;;;;5030694;28;20115;-80
2022/10/04 07:25:13;;;;;;;4.90;2.63;;;11.30;99.90;;;;;;5015661;28;20117;-82
2022/10/04 07:30:51;;;;;;;2.42;2.00;;;11.50;99.90;;;;;;5024104;28;20076;-78
2022/10/04 07:33:22;;;;;;;3.47;2.30;;;11.80;99.90;;;;;;5028842;28;20042;-79
2022/10/04 07:35:52;;;;;;;4.88;2.17;;;12.00;99.80;;;;;;5031698;28;20056;-79
2022/10/04 07:38:22;;;;;;;2.45;2.25;;;12.10;99.00;;;;;;5032302;28;20050;-81
2022/10/04 07:41:02;;;;;;;2.05;1.80;;;12.10;98.90;;;;;;5029213;28;20054;-80
2022/10/04 07:43:31;;;;;;;4.53;2.78;;;12.30;98.80;;;;;;5025457;28;20057;-80
2022/10/04 07:46:20;;;;;;;7.70;3.80;;;12.30;98.20;;;;;;5042644;28;20607;-79
2022/10/04 07:48:48;;;;;;;7.38;3.33;;;12.20;97.10;;;;;;5023609;28;20034;-81
2022/10/04 07:51:24;;;;;;;6.72;4.18;;;12.10;97.00;;;;;;5025080;28;20090;-79
2022/10/04 07:53:56;;;;;;;5.53;3.10;;;11.90;97.40;;;;;;5041473;28;20029;-79
2022/10/04 07:57:01;;;;;;;3.83;2.85;;;11.90;97.80;;;;;;5040996;28;20026;-81
2022/10/04 08:00:09;;;;;;;4.82;3.13;;;11.90;98.10;;;;;;5042867;28;20030;-81
2022/10/04 08:02:57;;;;;;;4.28;2.88;;;12.00;97.80;;;;;;5042571;28;20088;-80
2022/10/04 08:05:32;;;;;;;6.25;3.65;;;12.10;97.60;;;;;;5033557;28;20045;-79
2022/10/04 08:08:13;;;;;;;4.38;2.80;;;12.00;97.00;;;;;;5034951;28;20045;-80
2022/10/04 08:10:43;;;;;;;4.35;2.90;;;11.90;97.30;;;;;;5035309;28;20086;-81
2022/10/04 08:13:41;;;;;;;3.15;2.53;;;11.90;97.70;;;;;;5035426;28;20014;-82
2022/10/04 08:16:33;;;;;;;3.30;2.55;;;12.00;98.10;;;;;;5051394;28;20026;-82
2022/10/04 08:19:35;;;;;;;3.00;2.53;;;12.40;97.90;;;;;;5033547;28;20077;-82
2022/10/04 08:22:18;;;;;;;5.75;3.35;;;12.70;97.20;;;;;;5023439;28;20107;-81
2022/10/04 08:24:47;;;;;;;5.35;2.78;;;12.90;96.10;;;;;;5029896;28;20030;-82
2022/10/04 08:29:41;;;;;;;5.03;2.70;;;13.10;96.00;;;;;;5030875;28;20113;-81
2022/10/04 08:30:39;;;;;;;2.67;2.45;;;13.40;95.60;;;;;;5030594;28;20030;-82
2022/10/04 08:33:15;;;;;;;7.90;3.10;;;13.70;94.60;;;;;;5036925;28;20037;-80
2022/10/04 08:36:04;;;;;;;5.75;2.67;;;14.00;92.90;;;;;;5054924;22;20041;-83
2022/10/04 08:38:46;;;;;;;5.75;2.70;;;13.70;92.80;;;;;;5044213;28;20080;-84
2022/10/04 08:41:30;;;;;;;6.72;3.00;;;13.80;93.20;;;;;;5040542;28;20025;-85
2022/10/04 08:44:28;;;;;;;3.38;2.60;;;14.00;93.00;;;;;;5040545;28;20079;-85
2022/10/04 08:47:09;;;;;;;3.10;2.28;;;14.20;92.30;;;;;;5043982;28;20026;-84
2022/10/04 08:53:45;;;;;;;7.45;2.50;;;14.50;91.30;;;;;;5046456;28;20091;-85
2022/10/04 08:56:49;;;;;;;5.72;2.70;;;14.40;91.10;;;;;;5031879;28;20032;-85
2022/10/04 09:10:18;;;;;;;3.43;2.00;;;15.10;90.50;;;;;;5053950;28;20036;-84
2022/10/04 09:16:47;;;;;;;3.53;2.20;;;15.60;88.70;;;;;;5055804;28;20072;-84
2022/10/04 09:26:55;;;;;;;1.97;1.57;;;15.90;86.60;;;;;;5052167;28;20084;-85
2022/10/04 09:29:58;;;;;;;3.25;2.20;;;16.10;85.60;;;;;;5051305;28;20040;-83
2022/10/04 09:33:16;;;;;;;2.50;1.73;;;15.90;85.10;;;;;;5052620;28;20053;-84
2022/10/04 09:36:31;;;;;;;1.58;1.48;;;15.80;86.00;;;;;;5030441;28;20034;-84
2022/10/04 09:53:21;;;;;;;2.17;1.65;;;16.60;83.00;;;;;;5052112;28;20044;-84
2022/10/04 09:56:45;;;;;;;2.08;1.40;;;16.90;81.40;;;;;;5024404;28;20037;-84
2022/10/04 10:00:06;;;;;;;1.65;1.38;;;17.10;79.60;;;;;;5018063;28;20042;-84
2022/10/04 10:03:11;;;;;;;1.45;1.17;;;17.20;78.80;;;;;;5020992;28;20126;-84
2022/10/04 10:22:10;;;;;;;3.17;1.75;;;16.80;78.90;;;;;;1499222;26;20041;-85
2022/10/04 10:25:29;;;;;;;1.55;1.20;;;17.00;77.50;;;;;;5025358;28;20129;-85
2022/10/04 10:32:08;;;;;;;2.50;1.48;;;17.00;76.90;;;;;;4984912;28;20046;-84
2022/10/04 10:35:17;;;;;;;2.63;1.33;;;17.10;76.50;;;;;;4980626;28;20042;-83
2022/10/04 10:38:13;;;;;;;1.58;1.48;;;16.90;76.50;;;;;;4964354;28;20038;-85
2022/10/04 10:41:06;;;;;;;4.72;1.83;;;16.60;77.00;;;;;;4978470;28;20045;-84
2022/10/04 10:47:17;;;;;;;1.90;1.70;;;16.10;78.60;;;;;;5019558;28;20052;-84
2022/10/04 10:50:58;;;;;;;3.42;1.50;;;15.90;79.00;;;;;;5020136;28;20265;-84
2022/10/04 10:54:04;;;;;;;3.40;2.08;;;16.00;79.80;;;;;;5004031;28;20036;-84
2022/10/04 10:56:43;;;;;;;2.47;1.40;;;16.40;78.30;;;;;;5002586;28;20113;-84
2022/10/04 10:59:49;;;;;;;3.33;1.45;;;16.60;78.60;;;;;;5019862;28;20102;-84
2022/10/04 11:03:12;;;;;;;2.60;1.30;;;17.00;77.60;;;;;;4988100;28;20463;-84
2022/10/04 11:06:34;;;;;;;2.78;1.30;;;17.60;75.60;;;;;;5008914;28;20212;-83
2022/10/04 11:17:24;;;;;;;4.07;1.75;;;18.40;69.40;;;;;;4919768;29;20075;-85
2022/10/04 11:20:29;;;;;;;3.80;1.55;;;18.00;71.20;;;;;;4902095;29;20032;-83
2022/10/04 11:24:04;;;;;;;3.90;2.08;;;17.60;73.00;;;;;;4899945;29;20041;-85
2022/10/04 11:27:07;;;;;;;6.22;1.60;;;17.40;74.00;;;;;;4884671;29;20045;-85
2022/10/04 11:30:28;;;;;;;2.28;1.30;;;17.30;75.20;;;;;;4901358;29;20036;-84
2022/10/04 11:33:53;;;;;;;3.05;1.52;;;17.50;75.20;;;;;;4919692;29;20106;-84
2022/10/04 11:37:06;;;;;;;3.92;1.98;;;17.70;74.00;;;;;;4977057;28;20467;-83
2022/10/04 11:40:00;;;;;;;2.08;1.85;;;17.50;73.70;;;;;;4988374;28;20077;-85
2022/10/04 11:42:57;;;;;;;2.22;1.40;;;17.40;74.60;;;;;;4974031;28;20038;-84
2022/10/04 11:45:42;;;;;;;1.75;1.63;;;17.50;74.40;;;;;;5007527;28;20046;-84
2022/10/04 11:48:47;;;;;;;3.63;1.73;;;17.60;74.20;;;;;;4985028;28;20027;-85
2022/10/04 11:51:55;;;;;;;2.88;1.80;;;17.50;73.90;;;;;;5006665;28;20026;-84
2022/10/04 11:54:59;;;;;;;4.25;2.22;;;17.30;74.60;;;;;;4983953;28;20027;-84
2022/10/04 11:57:30;;;;;;;4.22;1.75;;;17.10;74.30;;;;;;5001935;28;20106;-84
2022/10/04 12:00:25;;;;;;;5.82;2.30;;;16.90;75.50;;;;;;5010169;28;20415;-86
2022/10/04 12:03:12;;;;;;;2.65;2.00;;;16.90;75.20;;;;;;4986090;28;20038;-85
2022/10/04 12:06:21;;;;;;;3.53;1.92;;;16.90;75.20;;;;;;4989851;28;20089;-84
2022/10/04 12:09:23;;;;;;;4.38;2.20;;;17.00;76.00;;;;;;4930046;29;20033;-84
2022/10/04 12:12:36;;;;;;;5.93;1.75;;;17.10;74.20;;;;;;4933374;29;20040;-85
2022/10/04 12:15:57;;;;;;;5.13;2.17;;;17.10;73.90;;;;;;4915437;29;20028;-84
2022/10/04 12:19:01;;;;;;;4.72;1.83;;;17.00;74.10;;;;;;4869231;29;20559;-84
2022/10/04 12:25:46;;;;;;;5.07;2.10;;;17.40;72.60;;;;;;5004899;28;20045;-84
2022/10/04 12:28:20;;;;;;;2.80;1.67;;;17.70;70.90;;;;;;4987944;28;20122;-84
2022/10/04 12:31:25;;;;;;;5.75;2.20;;;17.70;71.00;;;;;;4985017;28;20022;-84
2022/10/04 12:34:20;;;;;;;7.63;1.98;;;17.80;70.70;;;;;;4985788;28;20026;-83
2022/10/04 12:36:57;;;;;;;7.13;2.20;;;17.90;69.60;;;;;;5001573;28;20094;-84
2022/10/04 12:39:28;;;;;;;3.17;1.55;;;17.80;69.00;;;;;;5002927;28;20018;-84
2022/10/04 12:42:33;;;;;;;4.60;1.80;;;17.60;69.80;;;;;;5004372;28;20027;-85
2022/10/04 12:45:32;;;;;;;1.92;1.42;;;17.70;69.40;;;;;;4984170;28;20043;-84
2022/10/04 12:48:07;;;;;;;4.20;1.55;;;17.70;70.00;;;;;;5001578;28;19999;-84
2022/10/04 12:50:59;;;;;;;3.83;1.50;;;17.80;70.30;;;;;;5002039;28;20022;-86
2022/10/04 12:53:48;;;;;;;2.28;1.60;;;17.80;70.10;;;;;;4984097;28;20030;-85
2022/10/04 12:56:36;;;;;;;2.97;1.42;;;17.70;70.60;;;;;;4982729;28;20172;-86
2022/10/04 12:59:45;;;;;;;4.45;1.33;;;17.70;71.40;;;;;;5000951;28;20029;-84
2022/10/04 13:02:40;;;;;;;1.20;1.10;;;17.70;71.50;;;;;;4984076;28;20510;-84
2022/10/04 13:05:36;;;;;;;2.75;1.40;;;17.80;71.60;;;;;;4997774;28;20043;-85
2022/10/04 13:08:42;;;;;;;4.20;1.98;;;17.90;70.80;;;;;;4937151;28;20068;-83
2022/10/04 13:11:32;;;;;;;5.78;2.40;;;17.90;70.00;;;;;;5005352;28;20069;-82
2022/10/04 13:14:01;;;;;;;5.28;1.98;;;17.80;70.10;;;;;;5004081;28;20105;-83
2022/10/04 13:16:49;;;;;;;4.85;1.60;;;17.80;71.10;;;;;;4991510;28;20019;-83
2022/10/04 13:19:27;;;;;;;2.05;1.67;;;17.80;70.30;;;;;;4988699;28;20466;-84
2022/10/04 13:22:00;;;;;;;1.80;1.50;;;17.90;69.80;;;;;;4985855;28;20088;-84
2022/10/04 13:25:04;;;;;;;2.65;1.58;;;17.90;70.10;;;;;;4983447;28;20522;-84
2022/10/04 13:27:58;;;;;;;2.65;1.60;;;17.90;69.60;;;;;;4983248;28;20159;-84
2022/10/04 13:31:03;;;;;;;3.72;1.40;;;18.00;69.80;;;;;;4982891;28;20022;-86
2022/10/04 13:33:34;;;;;;;2.13;1.33;;;18.10;70.10;;;;;;4982423;28;20062;-84
2022/10/04 13:36:22;;;;;;;1.55;1.45;;;18.40;69.50;;;;;;4981974;28;20022;-84
2022/10/04 13:39:21;;;;;;;2.33;1.50;;;18.50;68.10;;;;;;4983301;28;20074;-84
2022/10/04 13:41:55;;;;;;;1.95;1.38;;;18.70;68.50;;;;;;4981265;28;20403;-85
2022/10/04 13:44:58;;;;;;;2.33;1.30;;;19.00;67.50;;;;;;4998470;28;20141;-85
2022/10/04 13:48:19;;;;;;;3.55;1.65;;;18.80;66.60;;;;;;4999828;28;20010;-85
2022/10/04 13:51:06;;;;;;;2.25;1.30;;;18.90;66.80;;;;;;4944550;28;20118;-84
2022/10/04 13:56:43;;;;;;;6.43;1.73;;;19.40;65.70;;;;;;5011366;28;20037;-83
2022/10/04 13:59:27;;;;;;;2.58;1.60;;;19.40;64.00;;;;;;5009587;28;20034;-84
2022/10/04 14:02:12;;;;;;;1.90;1.35;;;19.10;64.10;;;;;;4982541;28;20149;-84
2022/10/04 14:05:15;;;;;;;3.33;1.45;;;19.10;65.50;;;;;;4999753;28;20022;-85
2022/10/04 14:08:05;;;;;;;4.18;1.75;;;19.10;65.00;;;;;;4981794;28;20058;-84
2022/10/04 14:10:58;;;;;;;1.58;1.20;;;19.10;65.00;;;;;;5001752;28;20018;-83
2022/10/04 14:21:23;;;;;;;;;;;;;;;;;;;;;
2022/10/04 14:23:53;;;;;;;5.80;1.30;;;19.10;64.10;;;;;;4919418;29;20112;-84
2022/10/04 14:26:31;;;;;;;2.83;1.35;;;19.10;63.80;;;;;;4919303;29;20368;-84
2022/10/04 14:29:27;;;;;;;2.40;1.13;;;19.10;64.40;;;;;;4991324;28;20121;-83
2022/10/04 14:32:27;;;;;;;1.13;0.80;;;19.30;63.80;;;;;;4979182;28;20030;-85
2022/10/04 14:34:58;;;;;;;4.45;1.63;;;19.50;63.60;;;;;;5020218;28;20041;-84
2022/10/04 14:37:27;;;;;;;4.10;1.42;;;19.50;63.10;;;;;;5033267;22;20050;-80
2022/10/04 14:40:17;;;;;;;5.43;1.60;;;19.30;63.20;;;;;;5021607;28;20119;-80
2022/10/04 14:43:21;;;;;;;3.47;1.58;;;19.20;63.00;;;;;;5021107;28;20092;-80
2022/10/04 14:46:24;;;;;;;2.33;1.60;;;19.10;63.40;;;;;;5019712;28;20088;-80
2022/10/04 14:49:23;;;;;;;3.78;1.30;;;18.90;63.50;;;;;;5017008;28;20089;-80
2022/10/04 14:52:26;;;;;;;1.30;1.08;;;18.70;64.30;;;;;;5007983;28;20101;-80
2022/10/04 14:55:12;;;;;;;1.98;1.38;;;18.70;64.80;;;;;;5040723;28;20036;-80
2022/10/04 14:58:23;;;;;;;2.40;1.30;;;18.80;64.70;;;;;;5023626;28;20056;-80
2022/10/04 15:01:19;;;;;;;3.72;1.70;;;18.90;64.50;;;;;;5040928;28;20047;-80
2022/10/04 15:04:12;;;;;;;2.97;2.20;;;18.70;64.50;;;;;;5020944;28;20030;-79
2022/10/04 15:07:00;;;;;;;2.75;1.95;;;18.30;65.70;;;;;;5037489;28;20017;-78
2022/10/04 15:09:41;;;;;;;2.08;1.90;;;18.00;67.10;;;;;;5020254;28;20017;-79
2022/10/04 15:12:28;;;;;;;2.38;2.08;;;17.90;67.80;;;;;;5037282;28;20021;-79
2022/10/04 15:14:57;;;;;;;2.67;1.70;;;17.80;68.40;;;;;;5022041;28;20456;-78
2022/10/04 15:17:30;;;;;;;2.42;1.50;;;17.70;67.80;;;;;;5041043;28;20100;-79
2022/10/04 15:20:05;;;;;;;4.43;1.50;;;17.50;68.10;;;;;;5036145;28;20491;-79
2022/10/04 15:22:45;;;;;;;2.60;1.27;;;17.40;68.30;;;;;;5017891;28;20083;-78
2022/10/04 15:25:40;;;;;;;3.08;1.15;;;17.30;69.40;;;;;;5019978;28;20030;-79
2022/10/04 15:28:32;;;;;;;4.35;1.60;;;17.30;69.40;;;;;;5020097;28;20025;-80
2022/10/04 15:31:10;;;;;;;3.17;1.53;;;17.30;68.80;;;;;;5008061;28;20478;-79
2022/10/04 15:34:24;;;;;;;4.18;1.95;;;17.30;69.30;;;;;;5028971;28;20295;-80
2022/10/04 15:37:08;;;;;;;2.75;1.33;;;17.20;69.00;;;;;;4931264;29;20028;-79
2022/10/04 15:40:11;;;;;;;4.25;1.73;;;17.00;69.40;;;;;;5011006;28;20479;-80
2022/10/04 15:42:50;;;;;;;2.38;1.23;;;16.90;70.20;;;;;;5029923;28;20026;-79
2022/10/04 15:45:29;;;;;;;3.50;1.33;;;16.80;70.20;;;;;;5030025;28;20033;-79
2022/10/04 15:48:00;;;;;;;2.72;1.40;;;16.70;70.90;;;;;;5028537;28;20022;-79
2022/10/04 15:50:50;;;;;;;2.35;1.40;;;16.60;71.00;;;;;;5028310;28;20030;-79